This is the latest recevied weather packets stored in our database for station/object HP3ICC-22. If no packets are shown the sender has not sent any weather packets the latest 10 day(s).
| Time | Temp. | Humidity | Pressure | Rain* | Wind** | Luminosity | Snow |
|---|---|---|---|---|---|---|---|
| 1778124232 | 11.11° C | 76% | 1014 hPa | 0 mm | - | - | - |
| 1778123091 | 10° C | 88% | 1014 hPa | 0 mm | - | - | - |
| 1778123031 | 10° C | 88% | 1014 hPa | 0 mm | - | - | - |
| 1778121891 | 10.56° C | 88% | 1015 hPa | 0 mm | - | - | - |
| 1778121831 | 10.56° C | 88% | 1015 hPa | 0 mm | - | - | - |
| 1778120690 | 11.11° C | 76% | 1013 hPa | 0 mm | - | - | - |
| 1778120630 | 11.11° C | 76% | 1013 hPa | 0 mm | - | - | - |
| 1778119489 | 10° C | 80% | 1013 hPa | 0 mm | - | - | - |
| 1778119429 | 10° C | 80% | 1013 hPa | 0 mm | - | - | - |
| 1778118289 | 10.56° C | 80% | 1014 hPa | 0 mm | - | - | - |
| 1778118229 | 10.56° C | 80% | 1014 hPa | 0 mm | - | - | - |
| 1778117088 | 11.11° C | 80% | 1012 hPa | 0 mm | - | - | - |
| 1778117028 | 11.11° C | 80% | 1012 hPa | 0 mm | - | - | - |
| 1778115887 | 11.11° C | 80% | 1012 hPa | 0 mm | - | - | - |
| 1778115827 | 11.11° C | 80% | 1012 hPa | 0 mm | - | - | - |
| 1778114687 | 12.22° C | 80% | 1014 hPa | 0 mm | - | - | - |
| 1778114627 | 12.22° C | 80% | 1014 hPa | 0 mm | - | - | - |
| 1778113486 | 11.67° C | 78% | 1012 hPa | 0 mm | - | - | - |
| 1778113426 | 11.67° C | 78% | 1012 hPa | 0 mm | - | - | - |
| 1778112286 | 12.78° C | 77% | 1012 hPa | 0 mm | - | - | - |
| 1778112226 | 12.78° C | 77% | 1012 hPa | 0 mm | - | - | - |
| 1778111085 | 13.89° C | 75% | 1013 hPa | 0 mm | - | - | - |
| 1778111025 | 13.89° C | 75% | 1013 hPa | 0 mm | - | - | - |
| 1778109885 | 12.22° C | 77% | 1012 hPa | 0 mm | - | - | - |
| 1778109825 | 12.22° C | 77% | 1012 hPa | 0 mm | - | - | - |
* Rain latest hour (hover to see other rain measurements)
** Current wind speed in m/s (hover to see current wind gust speed)